sensor_id;sensor_type;location;lat;lon;timestamp;P1;durP1;ratioP1;P2;durP2;ratioP2
9986;SDS011;5033;46.310;11.214;2022-08-25T00:01:09;1.52;;;1.23;;
9986;SDS011;5033;46.310;11.214;2022-08-25T00:03:38;1.20;;;1.10;;
9986;SDS011;5033;46.310;11.214;2022-08-25T00:06:07;1.27;;;1.17;;
9986;SDS011;5033;46.310;11.214;2022-08-25T00:08:34;1.30;;;1.20;;
9986;SDS011;5033;46.310;11.214;2022-08-25T00:11:03;1.73;;;1.17;;
9986;SDS011;5033;46.310;11.214;2022-08-25T00:13:30;1.20;;;1.10;;
9986;SDS011;5033;46.310;11.214;2022-08-25T00:15:58;1.42;;;1.40;;
9986;SDS011;5033;46.310;11.214;2022-08-25T00:18:26;1.27;;;1.17;;
9986;SDS011;5033;46.310;11.214;2022-08-25T00:20:53;1.40;;;1.30;;
9986;SDS011;5033;46.310;11.214;2022-08-25T00:23:21;1.83;;;1.40;;
9986;SDS011;5033;46.310;11.214;2022-08-25T00:25:48;1.60;;;1.50;;
9986;SDS011;5033;46.310;11.214;2022-08-25T00:28:16;1.20;;;1.10;;
9986;SDS011;5033;46.310;11.214;2022-08-25T00:30:43;1.70;;;1.30;;
9986;SDS011;5033;46.310;11.214;2022-08-25T00:33:10;1.58;;;1.48;;
9986;SDS011;5033;46.310;11.214;2022-08-25T00:35:39;1.50;;;1.40;;
9986;SDS011;5033;46.310;11.214;2022-08-25T00:38:07;1.10;;;1.10;;
9986;SDS011;5033;46.310;11.214;2022-08-25T00:40:35;2.33;;;1.27;;
9986;SDS011;5033;46.310;11.214;2022-08-25T00:43:03;1.40;;;1.30;;
9986;SDS011;5033;46.310;11.214;2022-08-25T00:45:32;1.33;;;1.23;;
9986;SDS011;5033;46.310;11.214;2022-08-25T00:47:59;1.73;;;1.50;;
9986;SDS011;5033;46.310;11.214;2022-08-25T00:50:26;1.05;;;1.05;;
9986;SDS011;5033;46.310;11.214;2022-08-25T00:52:55;1.30;;;1.20;;
9986;SDS011;5033;46.310;11.214;2022-08-25T00:55:26;1.52;;;1.00;;
9986;SDS011;5033;46.310;11.214;2022-08-25T00:57:57;1.40;;;1.30;;
9986;SDS011;5033;46.310;11.214;2022-08-25T01:00:32;1.30;;;1.20;;
9986;SDS011;5033;46.310;11.214;2022-08-25T01:03:01;1.15;;;1.10;;
9986;SDS011;5033;46.310;11.214;2022-08-25T01:05:29;1.45;;;1.20;;
9986;SDS011;5033;46.310;11.214;2022-08-25T01:07:57;1.33;;;1.23;;
9986;SDS011;5033;46.310;11.214;2022-08-25T01:10:28;1.77;;;1.30;;
9986;SDS011;5033;46.310;11.214;2022-08-25T01:12:58;1.83;;;1.45;;
9986;SDS011;5033;46.310;11.214;2022-08-25T01:15:30;1.35;;;1.25;;
9986;SDS011;5033;46.310;11.214;2022-08-25T01:17:58;1.50;;;1.40;;
9986;SDS011;5033;46.310;11.214;2022-08-25T01:20:27;1.33;;;1.23;;
9986;SDS011;5033;46.310;11.214;2022-08-25T01:22:58;1.25;;;1.23;;
9986;SDS011;5033;46.310;11.214;2022-08-25T01:25:27;1.30;;;1.20;;
9986;SDS011;5033;46.310;11.214;2022-08-25T01:28:02;1.20;;;1.20;;
9986;SDS011;5033;46.310;11.214;2022-08-25T01:30:29;1.25;;;1.15;;
9986;SDS011;5033;46.310;11.214;2022-08-25T01:32:56;1.33;;;1.23;;
9986;SDS011;5033;46.310;11.214;2022-08-25T01:35:23;1.52;;;1.40;;
9986;SDS011;5033;46.310;11.214;2022-08-25T01:37:50;1.30;;;1.23;;
9986;SDS011;5033;46.310;11.214;2022-08-25T01:40:19;1.00;;;1.00;;
9986;SDS011;5033;46.310;11.214;2022-08-25T01:42:52;1.50;;;1.15;;
9986;SDS011;5033;46.310;11.214;2022-08-25T01:45:27;1.40;;;1.30;;
9986;SDS011;5033;46.310;11.214;2022-08-25T01:47:54;1.52;;;1.42;;
9986;SDS011;5033;46.310;11.214;2022-08-25T01:50:22;1.60;;;1.50;;
9986;SDS011;5033;46.310;11.214;2022-08-25T01:52:50;4.18;;;1.55;;
9986;SDS011;5033;46.310;11.214;2022-08-25T01:55:22;1.45;;;1.20;;
9986;SDS011;5033;46.310;11.214;2022-08-25T01:57:49;1.27;;;1.08;;
9986;SDS011;5033;46.310;11.214;2022-08-25T02:00:16;1.20;;;1.10;;
9986;SDS011;5033;46.310;11.214;2022-08-25T02:02:45;1.27;;;1.17;;
9986;SDS011;5033;46.310;11.214;2022-08-25T02:05:12;1.73;;;1.50;;
9986;SDS011;5033;46.310;11.214;2022-08-25T02:07:40;1.67;;;1.58;;
9986;SDS011;5033;46.310;11.214;2022-08-25T02:10:08;1.50;;;1.40;;
9986;SDS011;5033;46.310;11.214;2022-08-25T02:12:39;2.00;;;1.20;;
9986;SDS011;5033;46.310;11.214;2022-08-25T02:15:06;1.10;;;1.00;;
9986;SDS011;5033;46.310;11.214;2022-08-25T02:17:34;1.40;;;1.30;;
9986;SDS011;5033;46.310;11.214;2022-08-25T02:20:02;1.33;;;1.30;;
9986;SDS011;5033;46.310;11.214;2022-08-25T02:22:30;1.40;;;1.30;;
9986;SDS011;5033;46.310;11.214;2022-08-25T02:24:57;1.40;;;1.30;;
9986;SDS011;5033;46.310;11.214;2022-08-25T02:27:24;1.50;;;1.40;;
9986;SDS011;5033;46.310;11.214;2022-08-25T02:29:53;1.40;;;1.30;;
9986;SDS011;5033;46.310;11.214;2022-08-25T02:32:20;1.40;;;1.30;;
9986;SDS011;5033;46.310;11.214;2022-08-25T02:34:47;1.50;;;1.40;;
9986;SDS011;5033;46.310;11.214;2022-08-25T02:37:15;1.63;;;1.52;;
9986;SDS011;5033;46.310;11.214;2022-08-25T02:39:42;2.25;;;1.40;;
9986;SDS011;5033;46.310;11.214;2022-08-25T02:42:09;1.73;;;1.40;;
9986;SDS011;5033;46.310;11.214;2022-08-25T02:44:36;1.40;;;1.25;;
9986;SDS011;5033;46.310;11.214;2022-08-25T02:47:04;2.55;;;1.50;;
9986;SDS011;5033;46.310;11.214;2022-08-25T02:49:31;1.40;;;1.30;;
9986;SDS011;5033;46.310;11.214;2022-08-25T02:51:59;1.50;;;1.40;;
9986;SDS011;5033;46.310;11.214;2022-08-25T02:54:26;1.33;;;1.23;;
9986;SDS011;5033;46.310;11.214;2022-08-25T02:56:53;2.15;;;1.27;;
9986;SDS011;5033;46.310;11.214;2022-08-25T02:59:20;1.40;;;1.30;;
9986;SDS011;5033;46.310;11.214;2022-08-25T03:01:47;2.30;;;1.40;;
9986;SDS011;5033;46.310;11.214;2022-08-25T03:04:16;1.48;;;1.38;;
9986;SDS011;5033;46.310;11.214;2022-08-25T03:06:43;1.60;;;1.50;;
9986;SDS011;5033;46.310;11.214;2022-08-25T03:09:10;1.38;;;1.27;;
9986;SDS011;5033;46.310;11.214;2022-08-25T03:11:37;1.45;;;1.35;;
9986;SDS011;5033;46.310;11.214;2022-08-25T03:14:05;1.70;;;1.58;;
9986;SDS011;5033;46.310;11.214;2022-08-25T03:16:33;1.30;;;1.20;;
9986;SDS011;5033;46.310;11.214;2022-08-25T03:19:00;2.45;;;1.80;;
9986;SDS011;5033;46.310;11.214;2022-08-25T03:21:29;1.88;;;1.60;;
9986;SDS011;5033;46.310;11.214;2022-08-25T03:23:57;1.50;;;1.40;;
9986;SDS011;5033;46.310;11.214;2022-08-25T03:26:25;1.58;;;1.48;;
9986;SDS011;5033;46.310;11.214;2022-08-25T03:29:09;1.40;;;1.30;;
9986;SDS011;5033;46.310;11.214;2022-08-25T03:31:38;1.42;;;1.38;;
9986;SDS011;5033;46.310;11.214;2022-08-25T03:34:07;2.17;;;1.27;;
9986;SDS011;5033;46.310;11.214;2022-08-25T03:36:35;1.35;;;1.25;;
9986;SDS011;5033;46.310;11.214;2022-08-25T03:39:03;1.38;;;1.27;;
9986;SDS011;5033;46.310;11.214;2022-08-25T03:41:30;1.50;;;1.15;;
9986;SDS011;5033;46.310;11.214;2022-08-25T03:43:58;1.60;;;1.50;;
9986;SDS011;5033;46.310;11.214;2022-08-25T03:46:28;2.15;;;1.40;;
9986;SDS011;5033;46.310;11.214;2022-08-25T03:48:57;1.63;;;1.52;;
9986;SDS011;5033;46.310;11.214;2022-08-25T03:51:28;1.27;;;1.17;;
9986;SDS011;5033;46.310;11.214;2022-08-25T03:53:58;1.52;;;1.42;;
9986;SDS011;5033;46.310;11.214;2022-08-25T03:56:26;1.40;;;1.30;;
9986;SDS011;5033;46.310;11.214;2022-08-25T03:58:53;1.50;;;1.40;;
9986;SDS011;5033;46.310;11.214;2022-08-25T04:01:21;2.97;;;1.77;;
9986;SDS011;5033;46.310;11.214;2022-08-25T04:03:48;1.50;;;1.40;;
9986;SDS011;5033;46.310;11.214;2022-08-25T04:06:16;2.17;;;1.60;;
9986;SDS011;5033;46.310;11.214;2022-08-25T04:08:44;1.60;;;1.50;;
9986;SDS011;5033;46.310;11.214;2022-08-25T04:11:14;1.50;;;1.40;;
9986;SDS011;5033;46.310;11.214;2022-08-25T04:13:43;2.03;;;1.70;;
9986;SDS011;5033;46.310;11.214;2022-08-25T04:16:11;1.70;;;1.60;;
9986;SDS011;5033;46.310;11.214;2022-08-25T04:18:39;1.70;;;1.60;;
9986;SDS011;5033;46.310;11.214;2022-08-25T04:21:06;1.50;;;1.40;;
9986;SDS011;5033;46.310;11.214;2022-08-25T04:23:34;1.70;;;1.60;;
9986;SDS011;5033;46.310;11.214;2022-08-25T04:26:06;1.90;;;1.75;;
9986;SDS011;5033;46.310;11.214;2022-08-25T04:28:35;1.65;;;1.55;;
9986;SDS011;5033;46.310;11.214;2022-08-25T04:31:04;1.65;;;1.55;;
9986;SDS011;5033;46.310;11.214;2022-08-25T04:33:32;1.73;;;1.63;;
9986;SDS011;5033;46.310;11.214;2022-08-25T04:35:59;1.63;;;1.52;;
9986;SDS011;5033;46.310;11.214;2022-08-25T04:38:26;1.70;;;1.60;;
9986;SDS011;5033;46.310;11.214;2022-08-25T04:40:56;1.60;;;1.50;;
9986;SDS011;5033;46.310;11.214;2022-08-25T04:43:23;1.50;;;1.40;;
9986;SDS011;5033;46.310;11.214;2022-08-25T04:45:52;1.52;;;1.42;;
9986;SDS011;5033;46.310;11.214;2022-08-25T04:48:20;1.50;;;1.40;;
9986;SDS011;5033;46.310;11.214;2022-08-25T04:50:47;1.70;;;1.60;;
9986;SDS011;5033;46.310;11.214;2022-08-25T04:53:14;1.52;;;1.42;;
9986;SDS011;5033;46.310;11.214;2022-08-25T04:55:42;2.10;;;1.83;;
9986;SDS011;5033;46.310;11.214;2022-08-25T04:58:10;1.85;;;1.70;;
9986;SDS011;5033;46.310;11.214;2022-08-25T05:00:37;1.75;;;1.65;;
9986;SDS011;5033;46.310;11.214;2022-08-25T05:03:06;1.92;;;1.60;;
9986;SDS011;5033;46.310;11.214;2022-08-25T05:05:34;1.42;;;1.33;;
9986;SDS011;5033;46.310;11.214;2022-08-25T05:08:03;1.55;;;1.40;;
9986;SDS011;5033;46.310;11.214;2022-08-25T05:10:30;1.73;;;1.63;;
9986;SDS011;5033;46.310;11.214;2022-08-25T05:12:57;1.92;;;1.80;;
9986;SDS011;5033;46.310;11.214;2022-08-25T05:15:25;1.80;;;1.70;;
9986;SDS011;5033;46.310;11.214;2022-08-25T05:18:11;1.60;;;1.50;;
9986;SDS011;5033;46.310;11.214;2022-08-25T05:20:38;1.42;;;1.30;;
9986;SDS011;5033;46.310;11.214;2022-08-25T05:23:05;1.40;;;1.30;;
9986;SDS011;5033;46.310;11.214;2022-08-25T05:25:32;1.65;;;1.55;;
9986;SDS011;5033;46.310;11.214;2022-08-25T05:28:00;1.60;;;1.50;;
9986;SDS011;5033;46.310;11.214;2022-08-25T05:30:27;1.75;;;1.60;;
9986;SDS011;5033;46.310;11.214;2022-08-25T05:32:54;2.85;;;1.75;;
9986;SDS011;5033;46.310;11.214;2022-08-25T05:35:23;2.30;;;1.70;;
9986;SDS011;5033;46.310;11.214;2022-08-25T05:37:50;1.55;;;1.45;;
9986;SDS011;5033;46.310;11.214;2022-08-25T05:40:17;2.65;;;1.65;;
9986;SDS011;5033;46.310;11.214;2022-08-25T05:42:45;1.98;;;1.88;;
9986;SDS011;5033;46.310;11.214;2022-08-25T05:45:12;1.95;;;1.70;;
9986;SDS011;5033;46.310;11.214;2022-08-25T05:47:39;1.98;;;1.65;;
9986;SDS011;5033;46.310;11.214;2022-08-25T05:50:07;1.60;;;1.50;;
9986;SDS011;5033;46.310;11.214;2022-08-25T05:52:36;2.00;;;1.77;;
9986;SDS011;5033;46.310;11.214;2022-08-25T05:55:04;1.60;;;1.50;;
9986;SDS011;5033;46.310;11.214;2022-08-25T05:57:32;1.75;;;1.65;;
9986;SDS011;5033;46.310;11.214;2022-08-25T06:00:00;2.15;;;1.77;;
9986;SDS011;5033;46.310;11.214;2022-08-25T06:02:27;1.80;;;1.70;;
9986;SDS011;5033;46.310;11.214;2022-08-25T06:05:10;1.83;;;1.70;;
9986;SDS011;5033;46.310;11.214;2022-08-25T06:07:40;2.25;;;2.05;;
9986;SDS011;5033;46.310;11.214;2022-08-25T06:10:08;2.95;;;2.00;;
9986;SDS011;5033;46.310;11.214;2022-08-25T06:12:38;2.20;;;2.00;;
9986;SDS011;5033;46.310;11.214;2022-08-25T06:15:09;2.03;;;1.83;;
9986;SDS011;5033;46.310;11.214;2022-08-25T06:17:37;1.83;;;1.73;;
9986;SDS011;5033;46.310;11.214;2022-08-25T06:20:07;2.13;;;1.92;;
9986;SDS011;5033;46.310;11.214;2022-08-25T06:22:37;2.28;;;2.05;;
9986;SDS011;5033;46.310;11.214;2022-08-25T06:25:07;1.90;;;1.80;;
9986;SDS011;5033;46.310;11.214;2022-08-25T06:27:35;2.53;;;2.00;;
9986;SDS011;5033;46.310;11.214;2022-08-25T06:30:03;2.25;;;2.05;;
9986;SDS011;5033;46.310;11.214;2022-08-25T06:32:32;1.88;;;1.77;;
9986;SDS011;5033;46.310;11.214;2022-08-25T06:35:00;2.05;;;1.60;;
9986;SDS011;5033;46.310;11.214;2022-08-25T06:37:27;2.40;;;2.20;;
9986;SDS011;5033;46.310;11.214;2022-08-25T06:39:54;2.20;;;2.00;;
9986;SDS011;5033;46.310;11.214;2022-08-25T06:42:23;1.90;;;1.80;;
9986;SDS011;5033;46.310;11.214;2022-08-25T06:44:50;2.10;;;2.00;;
9986;SDS011;5033;46.310;11.214;2022-08-25T06:47:17;2.17;;;1.98;;
9986;SDS011;5033;46.310;11.214;2022-08-25T06:49:44;2.55;;;2.03;;
9986;SDS011;5033;46.310;11.214;2022-08-25T06:52:12;2.10;;;2.00;;
9986;SDS011;5033;46.310;11.214;2022-08-25T06:54:39;2.03;;;1.92;;
9986;SDS011;5033;46.310;11.214;2022-08-25T06:57:07;2.05;;;1.95;;
9986;SDS011;5033;46.310;11.214;2022-08-25T06:59:36;3.90;;;2.20;;
9986;SDS011;5033;46.310;11.214;2022-08-25T07:02:04;2.70;;;1.83;;
9986;SDS011;5033;46.310;11.214;2022-08-25T07:04:32;1.83;;;1.73;;
9986;SDS011;5033;46.310;11.214;2022-08-25T07:07:00;3.55;;;2.05;;
9986;SDS011;5033;46.310;11.214;2022-08-25T07:09:28;2.30;;;2.10;;
9986;SDS011;5033;46.310;11.214;2022-08-25T07:11:56;1.88;;;1.77;;
9986;SDS011;5033;46.310;11.214;2022-08-25T07:14:23;2.15;;;1.80;;
9986;SDS011;5033;46.310;11.214;2022-08-25T07:16:52;2.33;;;2.00;;
9986;SDS011;5033;46.310;11.214;2022-08-25T07:19:19;3.08;;;2.08;;
9986;SDS011;5033;46.310;11.214;2022-08-25T07:21:47;2.05;;;1.90;;
9986;SDS011;5033;46.310;11.214;2022-08-25T07:24:15;2.58;;;1.85;;
9986;SDS011;5033;46.310;11.214;2022-08-25T07:26:43;3.47;;;2.17;;
9986;SDS011;5033;46.310;11.214;2022-08-25T07:29:12;1.90;;;1.80;;
9986;SDS011;5033;46.310;11.214;2022-08-25T07:31:40;2.40;;;2.20;;
9986;SDS011;5033;46.310;11.214;2022-08-25T07:34:09;3.35;;;1.95;;
9986;SDS011;5033;46.310;11.214;2022-08-25T07:36:54;2.75;;;2.00;;
9986;SDS011;5033;46.310;11.214;2022-08-25T07:39:22;2.33;;;1.90;;
9986;SDS011;5033;46.310;11.214;2022-08-25T07:41:51;2.65;;;2.42;;
9986;SDS011;5033;46.310;11.214;2022-08-25T07:44:19;3.75;;;2.35;;
9986;SDS011;5033;46.310;11.214;2022-08-25T07:46:47;1.90;;;1.80;;
9986;SDS011;5033;46.310;11.214;2022-08-25T07:49:16;2.10;;;1.90;;
9986;SDS011;5033;46.310;11.214;2022-08-25T07:51:44;2.83;;;1.98;;
9986;SDS011;5033;46.310;11.214;2022-08-25T07:54:12;2.47;;;2.28;;
9986;SDS011;5033;46.310;11.214;2022-08-25T07:56:39;2.10;;;2.00;;
9986;SDS011;5033;46.310;11.214;2022-08-25T07:59:07;2.28;;;2.08;;
9986;SDS011;5033;46.310;11.214;2022-08-25T08:01:34;2.60;;;2.40;;
9986;SDS011;5033;46.310;11.214;2022-08-25T08:04:02;3.17;;;2.05;;
9986;SDS011;5033;46.310;11.214;2022-08-25T08:06:31;1.88;;;1.70;;
9986;SDS011;5033;46.310;11.214;2022-08-25T08:08:58;2.20;;;2.00;;
9986;SDS011;5033;46.310;11.214;2022-08-25T08:11:27;2.35;;;2.15;;
9986;SDS011;5033;46.310;11.214;2022-08-25T08:13:57;2.63;;;1.90;;
9986;SDS011;5033;46.310;11.214;2022-08-25T08:16:26;1.98;;;1.88;;
9986;SDS011;5033;46.310;11.214;2022-08-25T08:18:55;2.05;;;1.90;;
9986;SDS011;5033;46.310;11.214;2022-08-25T08:21:24;3.72;;;1.80;;
9986;SDS011;5033;46.310;11.214;2022-08-25T08:23:54;1.75;;;1.63;;
9986;SDS011;5033;46.310;11.214;2022-08-25T08:26:23;2.88;;;2.10;;
9986;SDS011;5033;46.310;11.214;2022-08-25T08:28:52;2.10;;;1.90;;
9986;SDS011;5033;46.310;11.214;2022-08-25T08:31:19;1.60;;;1.50;;
9986;SDS011;5033;46.310;11.214;2022-08-25T08:33:48;2.08;;;1.92;;
9986;SDS011;5033;46.310;11.214;2022-08-25T08:36:16;2.08;;;1.98;;
9986;SDS011;5033;46.310;11.214;2022-08-25T08:38:44;1.92;;;1.80;;
9986;SDS011;5033;46.310;11.214;2022-08-25T08:41:16;2.20;;;1.95;;
9986;SDS011;5033;46.310;11.214;2022-08-25T08:44:19;1.80;;;1.70;;
9986;SDS011;5033;46.310;11.214;2022-08-25T08:46:54;2.42;;;1.70;;
9986;SDS011;5033;46.310;11.214;2022-08-25T08:49:30;1.83;;;1.70;;
9986;SDS011;5033;46.310;11.214;2022-08-25T08:52:04;2.15;;;1.95;;
9986;SDS011;5033;46.310;11.214;2022-08-25T08:54:35;2.10;;;2.00;;
9986;SDS011;5033;46.310;11.214;2022-08-25T08:57:07;7.18;;;2.10;;
9986;SDS011;5033;46.310;11.214;2022-08-25T08:59:43;2.17;;;2.00;;
9986;SDS011;5033;46.310;11.214;2022-08-25T09:02:18;1.80;;;1.67;;
9986;SDS011;5033;46.310;11.214;2022-08-25T09:05:00;1.88;;;1.60;;
9986;SDS011;5033;46.310;11.214;2022-08-25T09:07:30;1.80;;;1.70;;
9986;SDS011;5033;46.310;11.214;2022-08-25T09:10:04;1.85;;;1.70;;
9986;SDS011;5033;46.310;11.214;2022-08-25T09:12:35;5.80;;;1.90;;
9986;SDS011;5033;46.310;11.214;2022-08-25T09:15:08;1.80;;;1.70;;
9986;SDS011;5033;46.310;11.214;2022-08-25T09:17:49;1.92;;;1.80;;
9986;SDS011;5033;46.310;11.214;2022-08-25T09:20:33;1.80;;;1.70;;
9986;SDS011;5033;46.310;11.214;2022-08-25T09:23:14;2.03;;;1.85;;
9986;SDS011;5033;46.310;11.214;2022-08-25T09:25:53;1.92;;;1.73;;
9986;SDS011;5033;46.310;11.214;2022-08-25T09:28:29;1.80;;;1.70;;
9986;SDS011;5033;46.310;11.214;2022-08-25T09:31:02;2.53;;;2.10;;
9986;SDS011;5033;46.310;11.214;2022-08-25T09:33:31;1.80;;;1.70;;
9986;SDS011;5033;46.310;11.214;2022-08-25T09:35:59;1.90;;;1.80;;
9986;SDS011;5033;46.310;11.214;2022-08-25T09:38:26;2.15;;;1.95;;
9986;SDS011;5033;46.310;11.214;2022-08-25T09:40:56;1.80;;;1.70;;
9986;SDS011;5033;46.310;11.214;2022-08-25T09:43:30;2.15;;;1.95;;
9986;SDS011;5033;46.310;11.214;2022-08-25T09:45:59;1.80;;;1.70;;
9986;SDS011;5033;46.310;11.214;2022-08-25T09:48:29;3.28;;;2.00;;
9986;SDS011;5033;46.310;11.214;2022-08-25T09:51:09;2.00;;;1.80;;
9986;SDS011;5033;46.310;11.214;2022-08-25T09:53:42;3.53;;;1.67;;
9986;SDS011;5033;46.310;11.214;2022-08-25T09:56:15;2.28;;;1.75;;
9986;SDS011;5033;46.310;11.214;2022-08-25T09:58:47;1.65;;;1.55;;
9986;SDS011;5033;46.310;11.214;2022-08-25T10:01:16;1.85;;;1.75;;
9986;SDS011;5033;46.310;11.214;2022-08-25T10:03:54;1.90;;;1.80;;
9986;SDS011;5033;46.310;11.214;2022-08-25T10:06:24;1.80;;;1.50;;
9986;SDS011;5033;46.310;11.214;2022-08-25T10:08:57;1.63;;;1.52;;
9986;SDS011;5033;46.310;11.214;2022-08-25T10:11:39;1.73;;;1.63;;
9986;SDS011;5033;46.310;11.214;2022-08-25T10:14:17;2.40;;;1.60;;
9986;SDS011;5033;46.310;11.214;2022-08-25T10:16:52;2.13;;;1.70;;
9986;SDS011;5033;46.310;11.214;2022-08-25T10:19:38;1.73;;;1.63;;
9986;SDS011;5033;46.310;11.214;2022-08-25T10:22:06;1.83;;;1.70;;
9986;SDS011;5033;46.310;11.214;2022-08-25T10:24:35;1.58;;;1.48;;
9986;SDS011;5033;46.310;11.214;2022-08-25T10:27:06;3.85;;;1.60;;
9986;SDS011;5033;46.310;11.214;2022-08-25T10:30:03;1.75;;;1.58;;
9986;SDS011;5033;46.310;11.214;2022-08-25T10:32:44;3.78;;;1.75;;
9986;SDS011;5033;46.310;11.214;2022-08-25T10:35:22;3.75;;;1.60;;
9986;SDS011;5033;46.310;11.214;2022-08-25T10:37:59;2.42;;;1.80;;
9986;SDS011;5033;46.310;11.214;2022-08-25T10:40:33;2.63;;;1.63;;
9986;SDS011;5033;46.310;11.214;2022-08-25T10:43:08;3.45;;;1.70;;
9986;SDS011;5033;46.310;11.214;2022-08-25T10:45:44;1.30;;;1.15;;
9986;SDS011;5033;46.310;11.214;2022-08-25T10:51:19;1.42;;;1.33;;
9986;SDS011;5033;46.310;11.214;2022-08-25T10:54:20;2.80;;;1.48;;
9986;SDS011;5033;46.310;11.214;2022-08-25T10:57:02;1.50;;;1.40;;
9986;SDS011;5033;46.310;11.214;2022-08-25T10:59:44;1.95;;;1.50;;
9986;SDS011;5033;46.310;11.214;2022-08-25T11:02:23;1.60;;;1.50;;
9986;SDS011;5033;46.310;11.214;2022-08-25T11:05:19;1.90;;;1.50;;
9986;SDS011;5033;46.310;11.214;2022-08-25T11:07:50;2.08;;;1.58;;
9986;SDS011;5033;46.310;11.214;2022-08-25T11:10:25;1.60;;;1.50;;
9986;SDS011;5033;46.310;11.214;2022-08-25T11:12:58;1.83;;;1.60;;
9986;SDS011;5033;46.310;11.214;2022-08-25T11:15:30;1.50;;;1.40;;
9986;SDS011;5033;46.310;11.214;2022-08-25T11:18:06;1.60;;;1.50;;
9986;SDS011;5033;46.310;11.214;2022-08-25T11:20:36;2.10;;;1.88;;
9986;SDS011;5033;46.310;11.214;2022-08-25T11:23:10;1.90;;;1.50;;
9986;SDS011;5033;46.310;11.214;2022-08-25T11:25:43;1.65;;;1.55;;
9986;SDS011;5033;46.310;11.214;2022-08-25T11:28:13;1.45;;;1.35;;
9986;SDS011;5033;46.310;11.214;2022-08-25T11:30:47;1.75;;;1.65;;
9986;SDS011;5033;46.310;11.214;2022-08-25T11:33:17;2.28;;;1.27;;
9986;SDS011;5033;46.310;11.214;2022-08-25T11:35:46;1.50;;;1.40;;
9986;SDS011;5033;46.310;11.214;2022-08-25T11:38:20;1.60;;;1.50;;
9986;SDS011;5033;46.310;11.214;2022-08-25T11:41:02;1.85;;;1.40;;
9986;SDS011;5033;46.310;11.214;2022-08-25T11:43:44;2.25;;;1.55;;
9986;SDS011;5033;46.310;11.214;2022-08-25T11:46:30;3.00;;;1.50;;
9986;SDS011;5033;46.310;11.214;2022-08-25T11:49:14;1.50;;;1.40;;
9986;SDS011;5033;46.310;11.214;2022-08-25T11:51:55;1.50;;;1.40;;
9986;SDS011;5033;46.310;11.214;2022-08-25T11:54:23;1.30;;;1.20;;
9986;SDS011;5033;46.310;11.214;2022-08-25T11:56:55;1.50;;;1.40;;
9986;SDS011;5033;46.310;11.214;2022-08-25T12:02:29;2.63;;;1.50;;
9986;SDS011;5033;46.310;11.214;2022-08-25T12:05:00;2.67;;;1.38;;
9986;SDS011;5033;46.310;11.214;2022-08-25T12:07:29;1.67;;;1.58;;
9986;SDS011;5033;46.310;11.214;2022-08-25T12:10:57;2.00;;;1.60;;
9986;SDS011;5033;46.310;11.214;2022-08-25T12:13:28;3.00;;;1.77;;
9986;SDS011;5033;46.310;11.214;2022-08-25T12:19:23;1.60;;;1.20;;
9986;SDS011;5033;46.310;11.214;2022-08-25T12:21:55;2.25;;;1.50;;
9986;SDS011;5033;46.310;11.214;2022-08-25T12:24:34;2.08;;;1.70;;
9986;SDS011;5033;46.310;11.214;2022-08-25T12:27:19;1.90;;;1.73;;
9986;SDS011;5033;46.310;11.214;2022-08-25T12:29:50;2.10;;;1.30;;
9986;SDS011;5033;46.310;11.214;2022-08-25T12:32:29;1.60;;;1.50;;
9986;SDS011;5033;46.310;11.214;2022-08-25T12:35:15;1.63;;;1.52;;
9986;SDS011;5033;46.310;11.214;2022-08-25T12:37:56;1.98;;;1.50;;
9986;SDS011;5033;46.310;11.214;2022-08-25T12:40:27;1.40;;;1.30;;
9986;SDS011;5033;46.310;11.214;2022-08-25T12:43:05;2.25;;;1.50;;
9986;SDS011;5033;46.310;11.214;2022-08-25T12:45:44;2.60;;;1.48;;
9986;SDS011;5033;46.310;11.214;2022-08-25T12:51:07;1.85;;;1.20;;
9986;SDS011;5033;46.310;11.214;2022-08-25T12:53:43;1.85;;;1.70;;
9986;SDS011;5033;46.310;11.214;2022-08-25T12:56:17;1.52;;;1.40;;
9986;SDS011;5033;46.310;11.214;2022-08-25T12:58:53;2.33;;;1.70;;
9986;SDS011;5033;46.310;11.214;2022-08-25T13:01:30;2.97;;;1.60;;
9986;SDS011;5033;46.310;11.214;2022-08-25T13:04:18;1.83;;;1.40;;
9986;SDS011;5033;46.310;11.214;2022-08-25T13:07:20;1.45;;;1.30;;
9986;SDS011;5033;46.310;11.214;2022-08-25T13:13:05;1.48;;;1.38;;
9986;SDS011;5033;46.310;11.214;2022-08-25T13:15:42;1.45;;;1.33;;
9986;SDS011;5033;46.310;11.214;2022-08-25T13:18:15;1.40;;;1.30;;
9986;SDS011;5033;46.310;11.214;2022-08-25T13:20:46;1.63;;;1.52;;
9986;SDS011;5033;46.310;11.214;2022-08-25T13:23:15;1.67;;;1.50;;
9986;SDS011;5033;46.310;11.214;2022-08-25T13:25:49;1.42;;;1.33;;
9986;SDS011;5033;46.310;11.214;2022-08-25T13:28:20;1.42;;;1.33;;
9986;SDS011;5033;46.310;11.214;2022-08-25T13:30:59;1.23;;;1.13;;
9986;SDS011;5033;46.310;11.214;2022-08-25T13:33:28;1.65;;;1.20;;
9986;SDS011;5033;46.310;11.214;2022-08-25T13:35:57;1.80;;;1.48;;
9986;SDS011;5033;46.310;11.214;2022-08-25T13:38:43;2.53;;;1.40;;
9986;SDS011;5033;46.310;11.214;2022-08-25T13:41:17;1.48;;;1.27;;
9986;SDS011;5033;46.310;11.214;2022-08-25T13:43:49;1.58;;;1.38;;
9986;SDS011;5033;46.310;11.214;2022-08-25T13:46:19;1.48;;;1.33;;
9986;SDS011;5033;46.310;11.214;2022-08-25T13:48:47;2.03;;;1.30;;
9986;SDS011;5033;46.310;11.214;2022-08-25T13:51:17;1.42;;;1.27;;
9986;SDS011;5033;46.310;11.214;2022-08-25T13:53:48;1.65;;;1.20;;
9986;SDS011;5033;46.310;11.214;2022-08-25T13:56:24;1.50;;;1.13;;
9986;SDS011;5033;46.310;11.214;2022-08-25T13:58:54;3.00;;;1.52;;
9986;SDS011;5033;46.310;11.214;2022-08-25T14:01:24;2.03;;;1.30;;
9986;SDS011;5033;46.310;11.214;2022-08-25T14:03:54;1.60;;;1.25;;
9986;SDS011;5033;46.310;11.214;2022-08-25T14:06:24;2.03;;;1.40;;
9986;SDS011;5033;46.310;11.214;2022-08-25T14:09:03;1.40;;;1.25;;
9986;SDS011;5033;46.310;11.214;2022-08-25T14:11:42;2.85;;;1.58;;
9986;SDS011;5033;46.310;11.214;2022-08-25T14:14:11;1.30;;;1.20;;
9986;SDS011;5033;46.310;11.214;2022-08-25T14:16:58;1.67;;;1.58;;
9986;SDS011;5033;46.310;11.214;2022-08-25T14:19:28;1.60;;;1.50;;
9986;SDS011;5033;46.310;11.214;2022-08-25T14:21:56;1.65;;;1.55;;
9986;SDS011;5033;46.310;11.214;2022-08-25T14:24:27;1.80;;;1.52;;
9986;SDS011;5033;46.310;11.214;2022-08-25T14:27:02;2.85;;;1.50;;
9986;SDS011;5033;46.310;11.214;2022-08-25T14:29:29;1.70;;;1.60;;
9986;SDS011;5033;46.310;11.214;2022-08-25T14:31:56;2.10;;;1.48;;
9986;SDS011;5033;46.310;11.214;2022-08-25T14:34:25;1.50;;;1.40;;
9986;SDS011;5033;46.310;11.214;2022-08-25T14:36:55;1.60;;;1.50;;
9986;SDS011;5033;46.310;11.214;2022-08-25T14:39:24;2.45;;;1.65;;
9986;SDS011;5033;46.310;11.214;2022-08-25T14:41:51;2.13;;;1.70;;
9986;SDS011;5033;46.310;11.214;2022-08-25T14:44:19;2.20;;;1.80;;
9986;SDS011;5033;46.310;11.214;2022-08-25T14:46:48;1.52;;;1.42;;
9986;SDS011;5033;46.310;11.214;2022-08-25T14:49:23;1.70;;;1.60;;
9986;SDS011;5033;46.310;11.214;2022-08-25T14:51:56;2.40;;;1.52;;
9986;SDS011;5033;46.310;11.214;2022-08-25T14:54:26;1.95;;;1.77;;
9986;SDS011;5033;46.310;11.214;2022-08-25T14:56:53;1.75;;;1.65;;
9986;SDS011;5033;46.310;11.214;2022-08-25T14:59:22;3.28;;;1.77;;
9986;SDS011;5033;46.310;11.214;2022-08-25T15:01:49;1.85;;;1.75;;
9986;SDS011;5033;46.310;11.214;2022-08-25T15:04:18;4.30;;;1.80;;
9986;SDS011;5033;46.310;11.214;2022-08-25T15:06:48;1.90;;;1.75;;
9986;SDS011;5033;46.310;11.214;2022-08-25T15:09:20;2.00;;;1.80;;
9986;SDS011;5033;46.310;11.214;2022-08-25T15:11:46;1.80;;;1.67;;
9986;SDS011;5033;46.310;11.214;2022-08-25T15:14:16;1.70;;;1.45;;
9986;SDS011;5033;46.310;11.214;2022-08-25T15:16:48;2.42;;;1.70;;
9986;SDS011;5033;46.310;11.214;2022-08-25T15:19:17;1.73;;;1.63;;
9986;SDS011;5033;46.310;11.214;2022-08-25T15:21:47;3.60;;;1.98;;
9986;SDS011;5033;46.310;11.214;2022-08-25T15:24:15;3.08;;;2.15;;
9986;SDS011;5033;46.310;11.214;2022-08-25T15:26:44;3.40;;;1.90;;
9986;SDS011;5033;46.310;11.214;2022-08-25T15:29:14;2.40;;;1.58;;
9986;SDS011;5033;46.310;11.214;2022-08-25T15:31:42;2.67;;;1.75;;
9986;SDS011;5033;46.310;11.214;2022-08-25T15:34:10;5.72;;;1.60;;
9986;SDS011;5033;46.310;11.214;2022-08-25T15:36:38;2.42;;;2.00;;
9986;SDS011;5033;46.310;11.214;2022-08-25T15:39:06;3.63;;;2.03;;